Terminal Aerodrome Forecast
Issued by NWS

Home | Current Version | Previous Version | Text Only | Print | Product List | Glossary On
Versions: 1 2 3 4 5 6 7 8 9 10 11 12 13 14 15 16 17 18 19 20 21 22 23 24 25 26
000
FTUS41 KBUF 300534
TAFIAG
TAF
KIAG 300534Z 3006/3106 20010KT P6SM SCT100
     FM301200 22016G24KT P6SM SCT100
     FM301500 22020G30KT P6SM VCSH BKN080
     FM302100 23014KT 6SM -SHRA VCTS OVC040CB
     FM310200 34008KT 5SM -SHRA BR OVC015
     FM310500 01008KT 3SM -SHRA BR OVC007=

USA.gov is the U.S. government's official web portal to all federal, state and local government web resources and services.